VOZ663 YSCB-YSSY
Flight info
| Callsign | VOZ663 |
|---|---|
| Flight time | 0h 43m |
| Altitude | 13000 |
| Route | CB W122 AKMIR W113 ODALE |
| Aircraft | SF34/M-SDFGR/S |
Departure
| Time | 2026-05-04 07:35 |
|---|---|
| Airport | Canberra Airport (YSCB) |
Arrival
| Time | 2026-05-04 08:19 |
|---|---|
| Airport | Sydney Kingsford Smith International Airport (YSSY) |
| Time | Latitude | Longitude | Altitude | Speed | Heading |
|---|---|---|---|---|---|
| 2026-05-04 07:14 | -35.30512 | 149.18852 | 1875 ft | 0 kts | 216° |
| 2026-05-04 07:29 | -35.30520 | 149.18855 | 1872 ft | 2 kts | 104° |
| 2026-05-04 07:29 | -35.30489 | 149.18900 | 1875 ft | 13 kts | 40° |
| 2026-05-04 07:29 | -35.30480 | 149.18928 | 1875 ft | 5 kts | 122° |
| 2026-05-04 07:29 | -35.30530 | 149.19004 | 1875 ft | 15 kts | 128° |
| 2026-05-04 07:30 | -35.30581 | 149.19081 | 1875 ft | 9 kts | 130° |
| 2026-05-04 07:30 | -35.30651 | 149.19181 | 1875 ft | 17 kts | 131° |
| 2026-05-04 07:30 | -35.30749 | 149.19239 | 1875 ft | 16 kts | 183° |
| 2026-05-04 07:30 | -35.30847 | 149.19234 | 1875 ft | 20 kts | 177° |
| 2026-05-04 07:31 | -35.31006 | 149.19238 | 1875 ft | 25 kts | 181° |
| 2026-05-04 07:31 | -35.31136 | 149.19238 | 1875 ft | 15 kts | 182° |
| 2026-05-04 07:33 | -35.31458 | 149.19304 | 1875 ft | 0 kts | 118° |
| 2026-05-04 07:34 | -35.31470 | 149.19374 | 1875 ft | 17 kts | 92° |
| 2026-05-04 07:34 | -35.31448 | 149.19446 | 1875 ft | 4 kts | 0° |
| 2026-05-04 07:34 | -35.31417 | 149.19445 | 1875 ft | 10 kts | 359° |
| 2026-05-04 07:35 | -35.31145 | 149.19444 | 1875 ft | 69 kts | 359° |
| 2026-05-04 07:35 | -35.30480 | 149.19443 | 1907 ft | 119 kts | 358° |
| 2026-05-04 07:35 | -35.29519 | 149.19433 | 2080 ft | 157 kts | 358° |
| 2026-05-04 07:35 | -35.28393 | 149.19442 | 2743 ft | 153 kts | 359° |
| 2026-05-04 07:36 | -35.27346 | 149.19504 | 3548 ft | 155 kts | 358° |
| 2026-05-04 07:36 | -35.26256 | 149.19720 | 4161 ft | 166 kts | 17° |
| 2026-05-04 07:38 | -35.19762 | 149.26093 | 9125 ft | 167 kts | 21° |
| 2026-05-04 07:38 | -35.18827 | 149.26913 | 9846 ft | 165 kts | 20° |
| 2026-05-04 07:38 | -35.17893 | 149.27732 | 10466 ft | 165 kts | 21° |
| 2026-05-04 07:38 | -35.16942 | 149.28561 | 11032 ft | 170 kts | 22° |
| 2026-05-04 07:39 | -35.15980 | 149.29407 | 11630 ft | 171 kts | 22° |
| 2026-05-04 07:39 | -35.15004 | 149.30259 | 12238 ft | 174 kts | 22° |
| 2026-05-04 07:39 | -35.14006 | 149.31132 | 12847 ft | 181 kts | 22° |
| 2026-05-04 07:39 | -35.12890 | 149.32090 | 12999 ft | 213 kts | 24° |
| 2026-05-04 07:40 | -35.11588 | 149.33181 | 13014 ft | 240 kts | 25° |
| 2026-05-04 07:40 | -35.10153 | 149.34388 | 13016 ft | 259 kts | 25° |
| 2026-05-04 07:40 | -35.08635 | 149.35667 | 13012 ft | 270 kts | 26° |
| 2026-05-04 07:40 | -35.07088 | 149.36960 | 13314 ft | 266 kts | 26° |
| 2026-05-04 07:41 | -35.05580 | 149.38227 | 13752 ft | 261 kts | 25° |
| 2026-05-04 07:41 | -35.04109 | 149.39458 | 14143 ft | 260 kts | 25° |
| 2026-05-04 07:41 | -35.02618 | 149.40701 | 14530 ft | 259 kts | 25° |
| 2026-05-04 07:41 | -35.01133 | 149.41943 | 14875 ft | 260 kts | 25° |
| 2026-05-04 07:42 | -34.99610 | 149.43211 | 14980 ft | 270 kts | 26° |
| 2026-05-04 07:42 | -34.98021 | 149.44547 | 15011 ft | 278 kts | 26° |
| 2026-05-04 07:42 | -34.96432 | 149.45869 | 15017 ft | 282 kts | 25° |
| 2026-05-04 07:42 | -34.94775 | 149.47242 | 15017 ft | 286 kts | 26° |
| 2026-05-04 07:43 | -34.93137 | 149.48620 | 15021 ft | 287 kts | 26° |
| 2026-05-04 07:43 | -34.91485 | 149.49994 | 15022 ft | 288 kts | 26° |
| 2026-05-04 07:43 | -34.89829 | 149.51371 | 15017 ft | 289 kts | 26° |
| 2026-05-04 07:43 | -34.88169 | 149.52757 | 15014 ft | 289 kts | 26° |
| 2026-05-04 07:44 | -34.86508 | 149.54139 | 15021 ft | 289 kts | 26° |
| 2026-05-04 07:44 | -34.84847 | 149.55519 | 15019 ft | 289 kts | 26° |
| 2026-05-04 07:44 | -34.83184 | 149.56901 | 15019 ft | 289 kts | 26° |
| 2026-05-04 07:44 | -34.81544 | 149.58261 | 15005 ft | 290 kts | 26° |
| 2026-05-04 07:45 | -34.79876 | 149.59654 | 15009 ft | 291 kts | 26° |
| 2026-05-04 07:45 | -34.78206 | 149.61036 | 14999 ft | 291 kts | 26° |
| 2026-05-04 07:45 | -34.76531 | 149.62423 | 15004 ft | 292 kts | 26° |
| 2026-05-04 07:45 | -34.74856 | 149.63817 | 15004 ft | 292 kts | 26° |
| 2026-05-04 07:46 | -34.73155 | 149.65224 | 15008 ft | 292 kts | 26° |
| 2026-05-04 07:46 | -34.71515 | 149.66582 | 15003 ft | 292 kts | 26° |
| 2026-05-04 07:46 | -34.69880 | 149.67937 | 15004 ft | 292 kts | 26° |
| 2026-05-04 07:46 | -34.68225 | 149.69307 | 15005 ft | 292 kts | 26° |
| 2026-05-04 07:47 | -34.66546 | 149.70695 | 15007 ft | 292 kts | 26° |
| 2026-05-04 07:47 | -34.64866 | 149.72085 | 14998 ft | 292 kts | 26° |
| 2026-05-04 07:47 | -34.63187 | 149.73472 | 14988 ft | 291 kts | 26° |
| 2026-05-04 07:49 | -34.51408 | 149.83184 | 14991 ft | 293 kts | 26° |
| 2026-05-04 07:49 | -34.49724 | 149.84572 | 14992 ft | 293 kts | 26° |
| 2026-05-04 07:49 | -34.48039 | 149.85960 | 14989 ft | 293 kts | 26° |
| 2026-05-04 07:50 | -34.46351 | 149.87342 | 14991 ft | 293 kts | 26° |
| 2026-05-04 07:50 | -34.44664 | 149.88732 | 14979 ft | 294 kts | 27° |
| 2026-05-04 07:50 | -34.42982 | 149.90121 | 14990 ft | 293 kts | 27° |
| 2026-05-04 07:50 | -34.41285 | 149.91502 | 14990 ft | 294 kts | 27° |
| 2026-05-04 07:51 | -34.39592 | 149.92899 | 14991 ft | 294 kts | 27° |
| 2026-05-04 07:51 | -34.37903 | 149.94286 | 14991 ft | 294 kts | 26° |
| 2026-05-04 07:51 | -34.36203 | 149.95676 | 14981 ft | 294 kts | 27° |
| 2026-05-04 07:51 | -34.34508 | 149.97071 | 14982 ft | 294 kts | 26° |
| 2026-05-04 07:52 | -34.32810 | 149.98444 | 14980 ft | 294 kts | 26° |
| 2026-05-04 07:52 | -34.31120 | 149.99839 | 14982 ft | 294 kts | 27° |
| 2026-05-04 07:52 | -34.29427 | 150.01232 | 14983 ft | 295 kts | 26° |
| 2026-05-04 07:52 | -34.27732 | 150.02605 | 14985 ft | 294 kts | 27° |
| 2026-05-04 07:53 | -34.26040 | 150.04007 | 14981 ft | 294 kts | 27° |
| 2026-05-04 07:54 | -34.16659 | 150.16705 | 14375 ft | 334 kts | 69° |
| 2026-05-04 07:55 | -34.16008 | 150.19400 | 13999 ft | 334 kts | 66° |
| 2026-05-04 07:55 | -34.15346 | 150.22078 | 13638 ft | 325 kts | 69° |
| 2026-05-04 07:55 | -34.14840 | 150.24664 | 13246 ft | 310 kts | 70° |
| 2026-05-04 07:55 | -34.14317 | 150.27148 | 12858 ft | 302 kts | 67° |
| 2026-05-04 07:56 | -34.13750 | 150.29558 | 12467 ft | 297 kts | 68° |
| 2026-05-04 07:56 | -34.13248 | 150.31973 | 12083 ft | 296 kts | 69° |
| 2026-05-04 07:56 | -34.12731 | 150.34377 | 11698 ft | 295 kts | 68° |
| 2026-05-04 07:56 | -34.12194 | 150.36759 | 11327 ft | 294 kts | 69° |
| 2026-05-04 07:57 | -34.11686 | 150.39150 | 10965 ft | 294 kts | 69° |
| 2026-05-04 07:57 | -34.11167 | 150.41525 | 10598 ft | 291 kts | 69° |
| 2026-05-04 07:57 | -34.10656 | 150.43836 | 10250 ft | 289 kts | 69° |
| 2026-05-04 07:57 | -34.10142 | 150.46218 | 9876 ft | 287 kts | 69° |
| 2026-05-04 07:58 | -34.09805 | 150.47758 | 9615 ft | 286 kts | 68° |
| 2026-05-04 07:58 | -34.09293 | 150.50074 | 9230 ft | 285 kts | 69° |
| 2026-05-04 07:58 | -34.08795 | 150.52363 | 9052 ft | 279 kts | 69° |
| 2026-05-04 07:58 | -34.08310 | 150.54620 | 8735 ft | 279 kts | 69° |
| 2026-05-04 07:59 | -34.07660 | 150.57659 | 8240 ft | 280 kts | 69° |
| 2026-05-04 07:59 | -34.07338 | 150.59155 | 8097 ft | 276 kts | 69° |
| 2026-05-04 07:59 | -34.06860 | 150.61370 | 8029 ft | 270 kts | 69° |
| 2026-05-04 07:59 | -34.06395 | 150.63539 | 8013 ft | 265 kts | 69° |
| 2026-05-04 08:00 | -34.05930 | 150.65685 | 7985 ft | 264 kts | 69° |
| 2026-05-04 08:00 | -34.05456 | 150.67867 | 7620 ft | 273 kts | 69° |
| 2026-05-04 08:00 | -34.04980 | 150.70092 | 7257 ft | 275 kts | 69° |
| 2026-05-04 08:02 | -34.01623 | 150.85070 | 6000 ft | 252 kts | 68° |
| 2026-05-04 08:02 | -34.01143 | 150.87105 | 6004 ft | 252 kts | 68° |
| 2026-05-04 08:02 | -34.00665 | 150.89132 | 6008 ft | 251 kts | 68° |
| 2026-05-04 08:03 | -34.00190 | 150.91159 | 6005 ft | 251 kts | 68° |
| 2026-05-04 08:03 | -33.99714 | 150.93182 | 6003 ft | 251 kts | 68° |
| 2026-05-04 08:03 | -33.99240 | 150.95208 | 6014 ft | 251 kts | 67° |
| 2026-05-04 08:03 | -33.98759 | 150.97237 | 6015 ft | 252 kts | 68° |
| 2026-05-04 08:04 | -33.98304 | 150.99275 | 6012 ft | 253 kts | 70° |
| 2026-05-04 08:04 | -33.97911 | 151.01339 | 6012 ft | 253 kts | 70° |
| 2026-05-04 08:04 | -33.97479 | 151.03383 | 6019 ft | 251 kts | 68° |
| 2026-05-04 08:04 | -33.97047 | 151.05416 | 6015 ft | 252 kts | 70° |
| 2026-05-04 08:05 | -33.96631 | 151.07475 | 6002 ft | 254 kts | 70° |
| 2026-05-04 08:05 | -33.96195 | 151.09538 | 6009 ft | 255 kts | 70° |
| 2026-05-04 08:05 | -33.95763 | 151.11616 | 6008 ft | 256 kts | 70° |
| 2026-05-04 08:05 | -33.95337 | 151.13689 | 6005 ft | 245 kts | 70° |
| 2026-05-04 08:06 | -33.94969 | 151.15498 | 5994 ft | 215 kts | 68° |
| 2026-05-04 08:06 | -33.94563 | 151.17313 | 5991 ft | 232 kts | 69° |
| 2026-05-04 08:06 | -33.94186 | 151.19230 | 5991 ft | 239 kts | 73° |
| 2026-05-04 08:06 | -33.94327 | 151.21168 | 5992 ft | 232 kts | 109° |
| 2026-05-04 08:08 | -34.01667 | 151.31047 | 5981 ft | 227 kts | 133° |
| 2026-05-04 08:08 | -34.02772 | 151.32471 | 5635 ft | 237 kts | 133° |
| 2026-05-04 08:10 | -34.12742 | 151.38894 | 2640 ft | 208 kts | 181° |
| 2026-05-04 08:11 | -34.14198 | 151.38879 | 2267 ft | 210 kts | 182° |
| 2026-05-04 08:11 | -34.16869 | 151.38311 | 2010 ft | 185 kts | 226° |
| 2026-05-04 08:11 | -34.17475 | 151.37084 | 1997 ft | 167 kts | 261° |
| 2026-05-04 08:12 | -34.17798 | 151.35749 | 1990 ft | 165 kts | 262° |
| 2026-05-04 08:12 | -34.18125 | 151.34406 | 1983 ft | 163 kts | 262° |
| 2026-05-04 08:12 | -34.18144 | 151.33151 | 1998 ft | 147 kts | 297° |
| 2026-05-04 08:12 | -34.17684 | 151.32059 | 1997 ft | 146 kts | 304° |
| 2026-05-04 08:13 | -34.17069 | 151.31049 | 2000 ft | 155 kts | 313° |
| 2026-05-04 08:13 | -34.16390 | 151.30030 | 2005 ft | 153 kts | 313° |
| 2026-05-04 08:13 | -34.15743 | 151.29039 | 2004 ft | 150 kts | 313° |
| 2026-05-04 08:13 | -34.15093 | 151.28045 | 2004 ft | 152 kts | 313° |
| 2026-05-04 08:14 | -34.14423 | 151.27049 | 2005 ft | 153 kts | 313° |
| 2026-05-04 08:14 | -34.13695 | 151.26143 | 1992 ft | 149 kts | 333° |
| 2026-05-04 08:14 | -34.12731 | 151.25699 | 1999 ft | 149 kts | 342° |
| 2026-05-04 08:16 | -34.06298 | 151.21825 | 1732 ft | 145 kts | 345° |
| 2026-05-04 08:16 | -34.05284 | 151.21501 | 1546 ft | 154 kts | 351° |
| 2026-05-04 08:16 | -34.04226 | 151.21245 | 1409 ft | 155 kts | 351° |
| 2026-05-04 08:17 | -34.03159 | 151.20946 | 1259 ft | 159 kts | 348° |
| 2026-05-04 08:17 | -34.02061 | 151.20666 | 999 ft | 165 kts | 351° |
| 2026-05-04 08:17 | -34.00950 | 151.20396 | 776 ft | 162 kts | 351° |
| 2026-05-04 08:17 | -33.99876 | 151.20088 | 599 ft | 154 kts | 351° |
| 2026-05-04 08:19 | -33.95739 | 151.18888 | 25 ft | 21 kts | 318° |
| 2026-05-04 08:19 | -33.95607 | 151.18796 | 25 ft | 24 kts | 341° |
| 2026-05-04 08:20 | -33.95487 | 151.18766 | 25 ft | 17 kts | 348° |
| 2026-05-04 08:20 | -33.95369 | 151.18735 | 25 ft | 19 kts | 351° |
| 2026-05-04 08:20 | -33.95233 | 151.18671 | 27 ft | 17 kts | 318° |
| 2026-05-04 08:20 | -33.95141 | 151.18568 | 26 ft | 21 kts | 308° |
| 2026-05-04 08:21 | -33.95125 | 151.18383 | 27 ft | 26 kts | 257° |
| 2026-05-04 08:21 | -33.95153 | 151.18217 | 26 ft | 5 kts | 258° |
| 2026-05-04 08:21 | -33.95171 | 151.18126 | 26 ft | 18 kts | 255° |
| 2026-05-04 08:21 | -33.95200 | 151.17968 | 26 ft | 0 kts | 262° |
| 2026-05-04 08:22 | -33.95192 | 151.17961 | 26 ft | 4 kts | 350° |
| 2026-05-04 08:22 | -33.95118 | 151.17948 | 28 ft | 17 kts | 349° |
| 2026-05-04 08:24 | -33.94565 | 151.17805 | 25 ft | 11 kts | 348° |
| 2026-05-04 08:24 | -33.94454 | 151.17772 | 26 ft | 22 kts | 345° |
| 2026-05-04 08:24 | -33.94316 | 151.17730 | 26 ft | 16 kts | 345° |
| 2026-05-04 08:24 | -33.94180 | 151.17687 | 25 ft | 21 kts | 342° |
| 2026-05-04 08:25 | -33.94014 | 151.17643 | 25 ft | 29 kts | 346° |
| 2026-05-04 08:25 | -33.93869 | 151.17660 | 25 ft | 20 kts | 66° |
| 2026-05-04 08:25 | -33.93833 | 151.17803 | 25 ft | 16 kts | 74° |
| 2026-05-04 08:25 | -33.93802 | 151.17931 | 26 ft | 19 kts | 73° |
| 2026-05-04 08:26 | -33.93758 | 151.18060 | 27 ft | 13 kts | 19° |
| 2026-05-04 08:27 | -33.93633 | 151.18112 | 26 ft | 0 kts | 71° |